sensor_id;sensor_type;location;lat;lon;timestamp;P1;durP1;ratioP1;P2;durP2;ratioP2
583;SDS011;27024;54.068;12.116;2022-08-19T00:01:51;26.65;;;19.75;;
583;SDS011;27024;54.068;12.116;2022-08-19T00:04:22;25.90;;;19.75;;
583;SDS011;27024;54.068;12.116;2022-08-19T00:06:52;23.45;;;18.15;;
583;SDS011;27024;54.068;12.116;2022-08-19T00:09:19;23.95;;;18.02;;
583;SDS011;27024;54.068;12.116;2022-08-19T00:11:47;21.73;;;17.23;;
583;SDS011;27024;54.068;12.116;2022-08-19T00:14:16;25.00;;;17.60;;
583;SDS011;27024;54.068;12.116;2022-08-19T00:16:43;22.98;;;17.90;;
583;SDS011;27024;54.068;12.116;2022-08-19T00:19:12;22.55;;;18.17;;
583;SDS011;27024;54.068;12.116;2022-08-19T00:21:39;26.05;;;18.58;;
583;SDS011;27024;54.068;12.116;2022-08-19T00:24:07;26.00;;;18.27;;
583;SDS011;27024;54.068;12.116;2022-08-19T00:26:35;27.98;;;20.05;;
583;SDS011;27024;54.068;12.116;2022-08-19T00:29:03;26.88;;;19.15;;
583;SDS011;27024;54.068;12.116;2022-08-19T00:31:31;25.70;;;18.42;;
583;SDS011;27024;54.068;12.116;2022-08-19T00:33:59;24.85;;;18.77;;
583;SDS011;27024;54.068;12.116;2022-08-19T00:36:26;24.80;;;18.95;;
583;SDS011;27024;54.068;12.116;2022-08-19T00:38:55;26.90;;;20.23;;
583;SDS011;27024;54.068;12.116;2022-08-19T00:41:23;26.92;;;19.67;;
583;SDS011;27024;54.068;12.116;2022-08-19T00:44:00;27.02;;;19.80;;
583;SDS011;27024;54.068;12.116;2022-08-19T00:46:28;25.67;;;19.35;;
583;SDS011;27024;54.068;12.116;2022-08-19T00:48:55;28.00;;;20.30;;
583;SDS011;27024;54.068;12.116;2022-08-19T00:51:25;27.60;;;20.65;;
583;SDS011;27024;54.068;12.116;2022-08-19T00:53:54;29.83;;;21.58;;
583;SDS011;27024;54.068;12.116;2022-08-19T00:56:23;28.40;;;21.15;;
583;SDS011;27024;54.068;12.116;2022-08-19T00:58:54;30.17;;;22.20;;
583;SDS011;27024;54.068;12.116;2022-08-19T01:01:22;28.33;;;20.80;;
583;SDS011;27024;54.068;12.116;2022-08-19T01:03:49;26.63;;;21.02;;
583;SDS011;27024;54.068;12.116;2022-08-19T01:06:24;27.67;;;20.13;;
583;SDS011;27024;54.068;12.116;2022-08-19T01:08:53;30.77;;;21.90;;
583;SDS011;27024;54.068;12.116;2022-08-19T01:11:21;27.42;;;20.58;;
583;SDS011;27024;54.068;12.116;2022-08-19T01:13:48;29.17;;;21.98;;
583;SDS011;27024;54.068;12.116;2022-08-19T01:16:17;28.98;;;21.25;;
583;SDS011;27024;54.068;12.116;2022-08-19T01:18:47;28.40;;;20.67;;
583;SDS011;27024;54.068;12.116;2022-08-19T01:21:17;26.98;;;20.30;;
583;SDS011;27024;54.068;12.116;2022-08-19T01:23:54;30.55;;;21.77;;
583;SDS011;27024;54.068;12.116;2022-08-19T01:26:22;27.80;;;21.10;;
583;SDS011;27024;54.068;12.116;2022-08-19T01:28:53;29.73;;;21.70;;
583;SDS011;27024;54.068;12.116;2022-08-19T01:31:26;27.05;;;20.92;;
583;SDS011;27024;54.068;12.116;2022-08-19T01:33:59;27.42;;;20.10;;
583;SDS011;27024;54.068;12.116;2022-08-19T01:39:03;26.40;;;20.85;;
583;SDS011;27024;54.068;12.116;2022-08-19T01:41:32;29.60;;;21.15;;
583;SDS011;27024;54.068;12.116;2022-08-19T01:43:59;26.08;;;20.13;;
583;SDS011;27024;54.068;12.116;2022-08-19T01:46:44;28.50;;;21.60;;
583;SDS011;27024;54.068;12.116;2022-08-19T01:49:14;29.42;;;21.55;;
583;SDS011;27024;54.068;12.116;2022-08-19T01:51:44;28.77;;;21.73;;
583;SDS011;27024;54.068;12.116;2022-08-19T01:54:11;30.55;;;22.77;;
583;SDS011;27024;54.068;12.116;2022-08-19T01:56:54;35.83;;;23.83;;
583;SDS011;27024;54.068;12.116;2022-08-19T01:59:28;34.22;;;24.48;;
583;SDS011;27024;54.068;12.116;2022-08-19T02:01:56;39.53;;;27.80;;
583;SDS011;27024;54.068;12.116;2022-08-19T02:04:23;34.28;;;25.17;;
583;SDS011;27024;54.068;12.116;2022-08-19T02:06:51;35.40;;;25.60;;
583;SDS011;27024;54.068;12.116;2022-08-19T02:09:18;41.22;;;28.65;;
583;SDS011;27024;54.068;12.116;2022-08-19T02:11:45;41.53;;;28.33;;
583;SDS011;27024;54.068;12.116;2022-08-19T02:14:12;41.47;;;28.70;;
583;SDS011;27024;54.068;12.116;2022-08-19T02:16:40;41.60;;;28.52;;
583;SDS011;27024;54.068;12.116;2022-08-19T02:19:07;43.78;;;28.30;;
583;SDS011;27024;54.068;12.116;2022-08-19T02:21:34;47.10;;;30.25;;
583;SDS011;27024;54.068;12.116;2022-08-19T02:24:01;41.67;;;29.08;;
583;SDS011;27024;54.068;12.116;2022-08-19T02:26:28;47.42;;;30.42;;
583;SDS011;27024;54.068;12.116;2022-08-19T02:28:55;47.17;;;30.83;;
583;SDS011;27024;54.068;12.116;2022-08-19T02:31:23;43.53;;;29.13;;
583;SDS011;27024;54.068;12.116;2022-08-19T02:33:51;47.90;;;30.67;;
583;SDS011;27024;54.068;12.116;2022-08-19T02:38:50;43.30;;;28.08;;
583;SDS011;27024;54.068;12.116;2022-08-19T02:41:28;46.50;;;28.73;;
583;SDS011;27024;54.068;12.116;2022-08-19T02:43:57;40.58;;;27.13;;
583;SDS011;27024;54.068;12.116;2022-08-19T02:46:47;41.83;;;27.63;;
583;SDS011;27024;54.068;12.116;2022-08-19T02:49:17;41.85;;;28.20;;
583;SDS011;27024;54.068;12.116;2022-08-19T02:51:45;43.25;;;28.02;;
583;SDS011;27024;54.068;12.116;2022-08-19T02:54:12;45.42;;;28.40;;
583;SDS011;27024;54.068;12.116;2022-08-19T02:56:40;43.47;;;27.52;;
583;SDS011;27024;54.068;12.116;2022-08-19T02:59:08;43.15;;;28.33;;
583;SDS011;27024;54.068;12.116;2022-08-19T03:01:37;39.95;;;26.05;;
583;SDS011;27024;54.068;12.116;2022-08-19T03:04:07;40.17;;;26.55;;
583;SDS011;27024;54.068;12.116;2022-08-19T03:06:36;40.92;;;27.10;;
583;SDS011;27024;54.068;12.116;2022-08-19T03:09:04;46.40;;;27.88;;
583;SDS011;27024;54.068;12.116;2022-08-19T03:11:31;46.55;;;29.13;;
583;SDS011;27024;54.068;12.116;2022-08-19T03:13:59;45.13;;;28.92;;
583;SDS011;27024;54.068;12.116;2022-08-19T03:16:29;43.65;;;28.05;;
583;SDS011;27024;54.068;12.116;2022-08-19T03:19:12;42.90;;;26.98;;
583;SDS011;27024;54.068;12.116;2022-08-19T03:21:42;50.08;;;28.10;;
583;SDS011;27024;54.068;12.116;2022-08-19T03:24:11;46.35;;;29.58;;
583;SDS011;27024;54.068;12.116;2022-08-19T03:26:43;49.00;;;28.50;;
583;SDS011;27024;54.068;12.116;2022-08-19T03:29:12;45.65;;;28.52;;
583;SDS011;27024;54.068;12.116;2022-08-19T03:31:55;46.70;;;28.58;;
583;SDS011;27024;54.068;12.116;2022-08-19T03:34:27;46.83;;;27.83;;
583;SDS011;27024;54.068;12.116;2022-08-19T03:36:55;52.92;;;30.42;;
583;SDS011;27024;54.068;12.116;2022-08-19T03:39:24;48.08;;;29.95;;
583;SDS011;27024;54.068;12.116;2022-08-19T03:41:53;52.45;;;30.23;;
583;SDS011;27024;54.068;12.116;2022-08-19T03:44:43;50.40;;;29.17;;
583;SDS011;27024;54.068;12.116;2022-08-19T03:47:11;48.85;;;28.48;;
583;SDS011;27024;54.068;12.116;2022-08-19T03:49:42;50.88;;;29.02;;
583;SDS011;27024;54.068;12.116;2022-08-19T03:52:09;50.88;;;29.50;;
583;SDS011;27024;54.068;12.116;2022-08-19T03:54:36;51.38;;;29.27;;
583;SDS011;27024;54.068;12.116;2022-08-19T03:57:04;51.10;;;29.42;;
583;SDS011;27024;54.068;12.116;2022-08-19T03:59:36;51.00;;;28.90;;
583;SDS011;27024;54.068;12.116;2022-08-19T04:02:06;49.35;;;28.48;;
583;SDS011;27024;54.068;12.116;2022-08-19T04:04:39;55.90;;;29.25;;
583;SDS011;27024;54.068;12.116;2022-08-19T04:07:09;49.90;;;28.60;;
583;SDS011;27024;54.068;12.116;2022-08-19T04:09:39;51.53;;;29.45;;
583;SDS011;27024;54.068;12.116;2022-08-19T04:12:06;47.70;;;28.27;;
583;SDS011;27024;54.068;12.116;2022-08-19T04:14:33;54.80;;;28.52;;
583;SDS011;27024;54.068;12.116;2022-08-19T04:17:01;52.75;;;29.60;;
583;SDS011;27024;54.068;12.116;2022-08-19T04:19:31;52.45;;;28.40;;
583;SDS011;27024;54.068;12.116;2022-08-19T04:21:59;49.90;;;28.33;;
583;SDS011;27024;54.068;12.116;2022-08-19T04:24:26;57.63;;;29.23;;
583;SDS011;27024;54.068;12.116;2022-08-19T04:26:53;51.97;;;27.80;;
583;SDS011;27024;54.068;12.116;2022-08-19T04:29:21;56.55;;;29.75;;
583;SDS011;27024;54.068;12.116;2022-08-19T04:34:21;60.08;;;31.27;;
583;SDS011;27024;54.068;12.116;2022-08-19T04:36:50;66.93;;;34.00;;
583;SDS011;27024;54.068;12.116;2022-08-19T04:39:20;61.50;;;32.00;;
583;SDS011;27024;54.068;12.116;2022-08-19T04:42:10;56.45;;;29.63;;
583;SDS011;27024;54.068;12.116;2022-08-19T04:44:56;68.47;;;31.52;;
583;SDS011;27024;54.068;12.116;2022-08-19T04:47:25;65.97;;;32.15;;
583;SDS011;27024;54.068;12.116;2022-08-19T04:50:12;60.58;;;30.90;;
583;SDS011;27024;54.068;12.116;2022-08-19T04:52:39;63.05;;;30.50;;
583;SDS011;27024;54.068;12.116;2022-08-19T04:55:10;58.47;;;30.58;;
583;SDS011;27024;54.068;12.116;2022-08-19T04:57:37;65.03;;;33.25;;
583;SDS011;27024;54.068;12.116;2022-08-19T05:00:07;65.85;;;32.25;;
583;SDS011;27024;54.068;12.116;2022-08-19T05:02:35;65.50;;;32.90;;
583;SDS011;27024;54.068;12.116;2022-08-19T05:05:02;63.58;;;32.63;;
583;SDS011;27024;54.068;12.116;2022-08-19T05:07:29;65.95;;;31.17;;
583;SDS011;27024;54.068;12.116;2022-08-19T05:09:57;61.88;;;31.40;;
583;SDS011;27024;54.068;12.116;2022-08-19T05:12:24;66.63;;;32.53;;
583;SDS011;27024;54.068;12.116;2022-08-19T05:14:55;62.92;;;31.58;;
583;SDS011;27024;54.068;12.116;2022-08-19T05:17:24;65.43;;;31.95;;
583;SDS011;27024;54.068;12.116;2022-08-19T05:19:56;66.00;;;31.95;;
583;SDS011;27024;54.068;12.116;2022-08-19T05:22:43;64.13;;;32.22;;
583;SDS011;27024;54.068;12.116;2022-08-19T05:25:13;62.63;;;30.75;;
583;SDS011;27024;54.068;12.116;2022-08-19T05:27:45;65.95;;;32.15;;
583;SDS011;27024;54.068;12.116;2022-08-19T05:30:12;62.45;;;31.05;;
583;SDS011;27024;54.068;12.116;2022-08-19T05:32:40;70.40;;;32.10;;
583;SDS011;27024;54.068;12.116;2022-08-19T05:35:08;67.47;;;33.25;;
583;SDS011;27024;54.068;12.116;2022-08-19T05:37:36;67.55;;;31.65;;
583;SDS011;27024;54.068;12.116;2022-08-19T05:40:03;64.82;;;31.42;;
583;SDS011;27024;54.068;12.116;2022-08-19T05:42:31;62.95;;;31.85;;
583;SDS011;27024;54.068;12.116;2022-08-19T05:44:58;66.35;;;33.95;;
583;SDS011;27024;54.068;12.116;2022-08-19T05:47:25;63.08;;;31.60;;
583;SDS011;27024;54.068;12.116;2022-08-19T05:49:52;63.70;;;31.55;;
583;SDS011;27024;54.068;12.116;2022-08-19T05:52:19;63.05;;;32.05;;
583;SDS011;27024;54.068;12.116;2022-08-19T05:54:52;68.43;;;31.63;;
583;SDS011;27024;54.068;12.116;2022-08-19T05:57:22;66.55;;;31.98;;
583;SDS011;27024;54.068;12.116;2022-08-19T05:59:50;66.38;;;32.70;;
583;SDS011;27024;54.068;12.116;2022-08-19T06:02:24;64.25;;;31.55;;
583;SDS011;27024;54.068;12.116;2022-08-19T06:07:21;64.22;;;30.95;;
583;SDS011;27024;54.068;12.116;2022-08-19T06:09:48;54.17;;;25.75;;
583;SDS011;27024;54.068;12.116;2022-08-19T06:12:30;66.28;;;31.20;;
583;SDS011;27024;54.068;12.116;2022-08-19T06:15:02;59.97;;;30.23;;
583;SDS011;27024;54.068;12.116;2022-08-19T06:17:39;69.57;;;31.67;;
583;SDS011;27024;54.068;12.116;2022-08-19T06:20:09;67.75;;;31.55;;
583;SDS011;27024;54.068;12.116;2022-08-19T06:22:40;60.90;;;30.67;;
583;SDS011;27024;54.068;12.116;2022-08-19T06:25:08;62.10;;;30.63;;
583;SDS011;27024;54.068;12.116;2022-08-19T06:27:36;62.97;;;31.10;;
583;SDS011;27024;54.068;12.116;2022-08-19T06:30:23;64.15;;;30.77;;
583;SDS011;27024;54.068;12.116;2022-08-19T06:32:50;60.10;;;29.92;;
583;SDS011;27024;54.068;12.116;2022-08-19T06:35:18;61.67;;;30.65;;
583;SDS011;27024;54.068;12.116;2022-08-19T06:37:45;65.68;;;30.48;;
583;SDS011;27024;54.068;12.116;2022-08-19T06:40:12;60.45;;;30.48;;
583;SDS011;27024;54.068;12.116;2022-08-19T06:42:39;65.28;;;30.00;;
583;SDS011;27024;54.068;12.116;2022-08-19T06:45:19;58.83;;;29.88;;
583;SDS011;27024;54.068;12.116;2022-08-19T06:47:50;60.05;;;28.77;;
583;SDS011;27024;54.068;12.116;2022-08-19T06:50:23;62.40;;;29.73;;
583;SDS011;27024;54.068;12.116;2022-08-19T06:52:50;59.63;;;28.48;;
583;SDS011;27024;54.068;12.116;2022-08-19T06:55:18;63.00;;;30.90;;
583;SDS011;27024;54.068;12.116;2022-08-19T06:57:45;64.60;;;31.23;;
583;SDS011;27024;54.068;12.116;2022-08-19T07:00:12;64.18;;;30.52;;
583;SDS011;27024;54.068;12.116;2022-08-19T07:02:40;67.55;;;32.17;;
583;SDS011;27024;54.068;12.116;2022-08-19T07:05:18;67.10;;;31.63;;
583;SDS011;27024;54.068;12.116;2022-08-19T07:07:45;69.70;;;33.78;;
583;SDS011;27024;54.068;12.116;2022-08-19T07:10:13;64.72;;;31.92;;
583;SDS011;27024;54.068;12.116;2022-08-19T07:12:40;71.25;;;32.72;;
583;SDS011;27024;54.068;12.116;2022-08-19T07:15:07;72.22;;;34.83;;
583;SDS011;27024;54.068;12.116;2022-08-19T07:17:37;72.47;;;33.92;;
583;SDS011;27024;54.068;12.116;2022-08-19T07:20:05;72.82;;;34.35;;
583;SDS011;27024;54.068;12.116;2022-08-19T07:22:38;67.32;;;32.33;;
583;SDS011;27024;54.068;12.116;2022-08-19T07:25:07;78.07;;;34.08;;
583;SDS011;27024;54.068;12.116;2022-08-19T07:27:36;76.30;;;33.92;;
583;SDS011;27024;54.068;12.116;2022-08-19T07:30:05;75.82;;;34.30;;
583;SDS011;27024;54.068;12.116;2022-08-19T07:32:37;71.85;;;32.85;;
583;SDS011;27024;54.068;12.116;2022-08-19T07:35:05;73.03;;;32.78;;
583;SDS011;27024;54.068;12.116;2022-08-19T07:37:33;68.07;;;31.65;;
583;SDS011;27024;54.068;12.116;2022-08-19T07:40:04;70.00;;;32.58;;
583;SDS011;27024;54.068;12.116;2022-08-19T07:42:32;70.97;;;33.17;;
583;SDS011;27024;54.068;12.116;2022-08-19T07:44:59;71.43;;;33.22;;
583;SDS011;27024;54.068;12.116;2022-08-19T07:47:25;66.90;;;32.10;;
583;SDS011;27024;54.068;12.116;2022-08-19T07:50:15;73.30;;;32.65;;
583;SDS011;27024;54.068;12.116;2022-08-19T07:52:45;67.97;;;33.38;;
583;SDS011;27024;54.068;12.116;2022-08-19T07:55:16;71.13;;;31.27;;
583;SDS011;27024;54.068;12.116;2022-08-19T08:01:49;70.38;;;30.80;;
583;SDS011;27024;54.068;12.116;2022-08-19T08:04:18;71.00;;;31.95;;
583;SDS011;27024;54.068;12.116;2022-08-19T08:07:04;64.07;;;30.92;;
583;SDS011;27024;54.068;12.116;2022-08-19T08:10:02;68.82;;;31.77;;
583;SDS011;27024;54.068;12.116;2022-08-19T08:12:45;63.92;;;31.48;;
583;SDS011;27024;54.068;12.116;2022-08-19T08:15:36;61.70;;;31.08;;
583;SDS011;27024;54.068;12.116;2022-08-19T08:18:09;66.22;;;30.63;;
583;SDS011;27024;54.068;12.116;2022-08-19T08:20:38;60.72;;;29.00;;
583;SDS011;27024;54.068;12.116;2022-08-19T08:23:04;60.17;;;31.48;;
583;SDS011;27024;54.068;12.116;2022-08-19T08:25:53;62.92;;;29.67;;
583;SDS011;27024;54.068;12.116;2022-08-19T08:28:29;59.92;;;29.75;;
583;SDS011;27024;54.068;12.116;2022-08-19T08:30:59;59.15;;;30.55;;
583;SDS011;27024;54.068;12.116;2022-08-19T08:33:27;65.05;;;29.85;;
583;SDS011;27024;54.068;12.116;2022-08-19T08:36:02;59.05;;;29.70;;
583;SDS011;27024;54.068;12.116;2022-08-19T08:38:31;58.95;;;29.13;;
583;SDS011;27024;54.068;12.116;2022-08-19T08:41:14;60.72;;;28.63;;
583;SDS011;27024;54.068;12.116;2022-08-19T08:43:46;62.13;;;29.45;;
583;SDS011;27024;54.068;12.116;2022-08-19T08:52:37;59.75;;;29.77;;
583;SDS011;27024;54.068;12.116;2022-08-19T08:55:13;63.63;;;30.38;;
583;SDS011;27024;54.068;12.116;2022-08-19T08:57:50;60.58;;;30.52;;
583;SDS011;27024;54.068;12.116;2022-08-19T09:00:26;58.75;;;30.38;;
583;SDS011;27024;54.068;12.116;2022-08-19T09:02:56;56.15;;;28.80;;
583;SDS011;27024;54.068;12.116;2022-08-19T09:06:04;59.45;;;30.13;;
583;SDS011;27024;54.068;12.116;2022-08-19T09:11:41;59.33;;;30.20;;
583;SDS011;27024;54.068;12.116;2022-08-19T09:17:17;54.10;;;28.83;;
583;SDS011;27024;54.068;12.116;2022-08-19T09:22:20;52.63;;;29.13;;
583;SDS011;27024;54.068;12.116;2022-08-19T09:24:53;56.78;;;29.65;;
583;SDS011;27024;54.068;12.116;2022-08-19T09:27:21;58.53;;;30.88;;
583;SDS011;27024;54.068;12.116;2022-08-19T09:30:17;54.58;;;30.10;;
583;SDS011;27024;54.068;12.116;2022-08-19T09:32:56;51.17;;;28.77;;
583;SDS011;27024;54.068;12.116;2022-08-19T09:35:24;52.97;;;28.80;;
583;SDS011;27024;54.068;12.116;2022-08-19T09:37:55;55.58;;;28.70;;
583;SDS011;27024;54.068;12.116;2022-08-19T09:40:27;50.83;;;27.73;;
583;SDS011;27024;54.068;12.116;2022-08-19T09:46:00;45.45;;;26.70;;
583;SDS011;27024;54.068;12.116;2022-08-19T09:48:27;43.63;;;25.73;;
583;SDS011;27024;54.068;12.116;2022-08-19T09:50:54;46.70;;;26.50;;
583;SDS011;27024;54.068;12.116;2022-08-19T09:53:21;46.80;;;26.55;;
583;SDS011;27024;54.068;12.116;2022-08-19T09:55:51;46.33;;;26.92;;
583;SDS011;27024;54.068;12.116;2022-08-19T09:58:18;42.92;;;25.67;;
583;SDS011;27024;54.068;12.116;2022-08-19T10:00:51;46.78;;;27.27;;
583;SDS011;27024;54.068;12.116;2022-08-19T10:03:20;42.92;;;26.60;;
583;SDS011;27024;54.068;12.116;2022-08-19T10:05:50;46.30;;;26.50;;
583;SDS011;27024;54.068;12.116;2022-08-19T10:08:22;41.42;;;24.80;;
583;SDS011;27024;54.068;12.116;2022-08-19T10:10:52;40.15;;;24.58;;
583;SDS011;27024;54.068;12.116;2022-08-19T10:13:20;40.03;;;24.58;;
583;SDS011;27024;54.068;12.116;2022-08-19T10:15:50;37.45;;;23.17;;
583;SDS011;27024;54.068;12.116;2022-08-19T10:18:19;36.38;;;23.60;;
583;SDS011;27024;54.068;12.116;2022-08-19T10:20:48;36.83;;;22.95;;
583;SDS011;27024;54.068;12.116;2022-08-19T10:23:18;37.90;;;23.40;;
583;SDS011;27024;54.068;12.116;2022-08-19T10:25:47;42.47;;;26.58;;
583;SDS011;27024;54.068;12.116;2022-08-19T10:28:14;38.80;;;24.75;;
583;SDS011;27024;54.068;12.116;2022-08-19T10:30:44;37.63;;;24.00;;
583;SDS011;27024;54.068;12.116;2022-08-19T10:33:12;42.33;;;25.88;;
583;SDS011;27024;54.068;12.116;2022-08-19T10:35:40;39.70;;;26.02;;
583;SDS011;27024;54.068;12.116;2022-08-19T10:38:22;36.20;;;24.02;;
583;SDS011;27024;54.068;12.116;2022-08-19T10:40:57;39.78;;;25.88;;
583;SDS011;27024;54.068;12.116;2022-08-19T10:43:33;40.65;;;26.48;;
583;SDS011;27024;54.068;12.116;2022-08-19T10:46:04;40.00;;;26.10;;
583;SDS011;27024;54.068;12.116;2022-08-19T10:48:42;41.03;;;26.63;;
583;SDS011;27024;54.068;12.116;2022-08-19T10:51:10;42.50;;;26.88;;
583;SDS011;27024;54.068;12.116;2022-08-19T10:53:56;39.92;;;26.08;;
583;SDS011;27024;54.068;12.116;2022-08-19T10:56:25;38.92;;;26.60;;
583;SDS011;27024;54.068;12.116;2022-08-19T10:59:11;38.10;;;25.80;;
583;SDS011;27024;54.068;12.116;2022-08-19T11:01:40;38.28;;;26.73;;
583;SDS011;27024;54.068;12.116;2022-08-19T11:04:09;38.05;;;25.50;;
583;SDS011;27024;54.068;12.116;2022-08-19T11:06:40;38.90;;;26.17;;
583;SDS011;27024;54.068;12.116;2022-08-19T11:09:09;44.35;;;27.13;;
583;SDS011;27024;54.068;12.116;2022-08-19T11:11:37;37.90;;;25.27;;
583;SDS011;27024;54.068;12.116;2022-08-19T11:14:08;39.63;;;27.75;;
583;SDS011;27024;54.068;12.116;2022-08-19T11:16:37;41.33;;;27.00;;
583;SDS011;27024;54.068;12.116;2022-08-19T11:19:05;38.72;;;26.55;;
583;SDS011;27024;54.068;12.116;2022-08-19T11:21:35;38.58;;;25.83;;
583;SDS011;27024;54.068;12.116;2022-08-19T11:24:06;41.30;;;26.50;;
583;SDS011;27024;54.068;12.116;2022-08-19T11:26:39;39.55;;;25.58;;
583;SDS011;27024;54.068;12.116;2022-08-19T11:29:07;39.80;;;25.80;;
583;SDS011;27024;54.068;12.116;2022-08-19T11:31:43;42.53;;;27.75;;
583;SDS011;27024;54.068;12.116;2022-08-19T11:34:12;39.55;;;26.58;;
583;SDS011;27024;54.068;12.116;2022-08-19T11:36:43;40.30;;;26.52;;
583;SDS011;27024;54.068;12.116;2022-08-19T11:39:13;45.67;;;27.23;;
583;SDS011;27024;54.068;12.116;2022-08-19T11:41:42;39.35;;;25.58;;
583;SDS011;27024;54.068;12.116;2022-08-19T11:44:08;42.38;;;26.88;;
583;SDS011;27024;54.068;12.116;2022-08-19T11:46:36;39.30;;;26.63;;
583;SDS011;27024;54.068;12.116;2022-08-19T11:49:04;42.55;;;27.33;;
583;SDS011;27024;54.068;12.116;2022-08-19T11:51:39;38.92;;;26.17;;
583;SDS011;27024;54.068;12.116;2022-08-19T11:54:08;41.92;;;26.83;;
583;SDS011;27024;54.068;12.116;2022-08-19T11:56:36;37.92;;;24.77;;
583;SDS011;27024;54.068;12.116;2022-08-19T11:59:03;39.25;;;26.13;;
583;SDS011;27024;54.068;12.116;2022-08-19T12:01:30;39.30;;;25.73;;
583;SDS011;27024;54.068;12.116;2022-08-19T12:03:58;40.08;;;26.85;;
583;SDS011;27024;54.068;12.116;2022-08-19T12:06:29;38.88;;;25.55;;
583;SDS011;27024;54.068;12.116;2022-08-19T12:08:59;38.67;;;25.90;;
583;SDS011;27024;54.068;12.116;2022-08-19T12:11:32;36.53;;;25.23;;
583;SDS011;27024;54.068;12.116;2022-08-19T12:14:00;37.05;;;25.50;;
583;SDS011;27024;54.068;12.116;2022-08-19T12:16:28;37.45;;;25.35;;
583;SDS011;27024;54.068;12.116;2022-08-19T12:18:58;40.38;;;25.35;;
583;SDS011;27024;54.068;12.116;2022-08-19T12:21:30;40.45;;;26.83;;
583;SDS011;27024;54.068;12.116;2022-08-19T12:23:59;43.00;;;28.55;;
583;SDS011;27024;54.068;12.116;2022-08-19T12:26:27;47.88;;;28.30;;
583;SDS011;27024;54.068;12.116;2022-08-19T12:28:58;41.90;;;26.77;;
583;SDS011;27024;54.068;12.116;2022-08-19T12:31:28;38.85;;;26.38;;
583;SDS011;27024;54.068;12.116;2022-08-19T12:33:56;40.58;;;27.20;;
583;SDS011;27024;54.068;12.116;2022-08-19T12:36:28;39.97;;;26.42;;
583;SDS011;27024;54.068;12.116;2022-08-19T12:38:55;41.17;;;27.60;;
583;SDS011;27024;54.068;12.116;2022-08-19T12:41:25;44.33;;;27.75;;
583;SDS011;27024;54.068;12.116;2022-08-19T12:43:52;43.45;;;27.45;;
583;SDS011;27024;54.068;12.116;2022-08-19T12:46:19;35.30;;;24.20;;
583;SDS011;27024;54.068;12.116;2022-08-19T12:48:51;36.78;;;24.23;;
583;SDS011;27024;54.068;12.116;2022-08-19T12:51:21;37.80;;;25.65;;
583;SDS011;27024;54.068;12.116;2022-08-19T12:53:48;38.97;;;25.92;;
583;SDS011;27024;54.068;12.116;2022-08-19T12:56:16;37.28;;;24.35;;
583;SDS011;27024;54.068;12.116;2022-08-19T12:58:48;37.88;;;25.08;;
583;SDS011;27024;54.068;12.116;2022-08-19T13:01:17;35.47;;;24.13;;
583;SDS011;27024;54.068;12.116;2022-08-19T13:03:48;33.13;;;23.05;;
583;SDS011;27024;54.068;12.116;2022-08-19T13:06:16;33.53;;;23.27;;
583;SDS011;27024;54.068;12.116;2022-08-19T13:08:45;33.65;;;23.10;;
583;SDS011;27024;54.068;12.116;2022-08-19T13:11:17;36.30;;;24.45;;
583;SDS011;27024;54.068;12.116;2022-08-19T13:13:47;34.08;;;22.13;;
583;SDS011;27024;54.068;12.116;2022-08-19T13:16:16;31.17;;;21.75;;
583;SDS011;27024;54.068;12.116;2022-08-19T13:18:44;29.75;;;21.42;;
583;SDS011;27024;54.068;12.116;2022-08-19T13:21:13;31.63;;;21.48;;
583;SDS011;27024;54.068;12.116;2022-08-19T13:23:41;29.77;;;21.45;;
583;SDS011;27024;54.068;12.116;2022-08-19T13:26:08;33.08;;;22.02;;
583;SDS011;27024;54.068;12.116;2022-08-19T13:28:37;32.75;;;22.58;;
583;SDS011;27024;54.068;12.116;2022-08-19T13:31:25;28.83;;;21.08;;
583;SDS011;27024;54.068;12.116;2022-08-19T13:34:12;27.65;;;19.95;;
583;SDS011;27024;54.068;12.116;2022-08-19T13:36:39;28.60;;;19.30;;
583;SDS011;27024;54.068;12.116;2022-08-19T13:39:06;31.58;;;21.85;;
583;SDS011;27024;54.068;12.116;2022-08-19T13:41:35;30.05;;;21.20;;
583;SDS011;27024;54.068;12.116;2022-08-19T13:44:03;30.30;;;22.08;;
583;SDS011;27024;54.068;12.116;2022-08-19T13:46:32;29.67;;;20.77;;
583;SDS011;27024;54.068;12.116;2022-08-19T13:48:59;29.05;;;21.08;;
583;SDS011;27024;54.068;12.116;2022-08-19T13:51:26;27.92;;;20.13;;
583;SDS011;27024;54.068;12.116;2022-08-19T13:53:53;29.17;;;21.15;;
583;SDS011;27024;54.068;12.116;2022-08-19T13:56:21;29.52;;;21.17;;
583;SDS011;27024;54.068;12.116;2022-08-19T13:58:51;27.33;;;20.98;;
583;SDS011;27024;54.068;12.116;2022-08-19T14:01:23;30.23;;;22.55;;
583;SDS011;27024;54.068;12.116;2022-08-19T14:03:50;30.55;;;21.98;;
583;SDS011;27024;54.068;12.116;2022-08-19T14:06:17;31.33;;;21.92;;
583;SDS011;27024;54.068;12.116;2022-08-19T14:08:45;31.50;;;22.92;;
583;SDS011;27024;54.068;12.116;2022-08-19T14:11:12;31.17;;;22.25;;
583;SDS011;27024;54.068;12.116;2022-08-19T14:13:39;33.58;;;22.60;;
583;SDS011;27024;54.068;12.116;2022-08-19T14:16:10;31.90;;;22.17;;
583;SDS011;27024;54.068;12.116;2022-08-19T14:18:40;32.60;;;22.73;;
583;SDS011;27024;54.068;12.116;2022-08-19T14:21:08;31.33;;;21.13;;
583;SDS011;27024;54.068;12.116;2022-08-19T14:23:43;30.52;;;22.75;;
583;SDS011;27024;54.068;12.116;2022-08-19T14:26:11;31.35;;;21.75;;
583;SDS011;27024;54.068;12.116;2022-08-19T14:28:41;32.17;;;22.73;;
583;SDS011;27024;54.068;12.116;2022-08-19T14:31:09;36.17;;;23.35;;
583;SDS011;27024;54.068;12.116;2022-08-19T14:33:37;34.83;;;24.38;;
583;SDS011;27024;54.068;12.116;2022-08-19T14:36:04;34.63;;;24.40;;
583;SDS011;27024;54.068;12.116;2022-08-19T14:38:31;37.35;;;25.58;;
583;SDS011;27024;54.068;12.116;2022-08-19T14:41:09;39.05;;;24.50;;
583;SDS011;27024;54.068;12.116;2022-08-19T14:43:39;38.83;;;24.65;;
583;SDS011;27024;54.068;12.116;2022-08-19T14:46:06;32.80;;;22.08;;
583;SDS011;27024;54.068;12.116;2022-08-19T14:48:35;36.58;;;24.42;;
583;SDS011;27024;54.068;12.116;2022-08-19T14:51:06;38.30;;;25.13;;
583;SDS011;27024;54.068;12.116;2022-08-19T14:53:34;36.70;;;24.45;;
583;SDS011;27024;54.068;12.116;2022-08-19T14:56:01;39.38;;;25.77;;
583;SDS011;27024;54.068;12.116;2022-08-19T14:58:35;40.97;;;26.00;;
583;SDS011;27024;54.068;12.116;2022-08-19T15:01:04;41.50;;;27.77;;
583;SDS011;27024;54.068;12.116;2022-08-19T15:03:31;42.72;;;26.55;;
583;SDS011;27024;54.068;12.116;2022-08-19T15:05:59;42.72;;;26.38;;
583;SDS011;27024;54.068;12.116;2022-08-19T15:08:28;44.20;;;27.42;;
583;SDS011;27024;54.068;12.116;2022-08-19T15:10:56;43.20;;;27.10;;
583;SDS011;27024;54.068;12.116;2022-08-19T15:13:25;43.50;;;26.80;;
583;SDS011;27024;54.068;12.116;2022-08-19T15:15:54;46.00;;;28.13;;
583;SDS011;27024;54.068;12.116;2022-08-19T15:18:21;41.60;;;27.30;;
583;SDS011;27024;54.068;12.116;2022-08-19T15:20:48;44.95;;;27.90;;
583;SDS011;27024;54.068;12.116;2022-08-19T15:23:17;52.40;;;29.20;;
583;SDS011;27024;54.068;12.116;2022-08-19T15:25:45;48.85;;;29.13;;